Terminal Aerodrome Forecast
Issued by NWS

Current Version | Previous Version | Text Only | Print | Product List | Glossary Off
Versions: 1 2 3 4 5 6 7 8 9 10 11 12 13 14 15 16 17 18 19 20 21 22 23 24 25 26 27

000
FTUS44 KSJT 210100 AAA
TAFJCT
TAF AMD
KJCT 210124Z 2101/2124 17009KT P6SM BKN012 BKN020
     FM210700 19010KT P6SM OVC007
     FM211500 21008KT P6SM BKN020
     FM211800 21008KT P6SM BKN035=

USA.gov is the U.S. government's official web portal to all federal, state and local government web resources and services.